Time;durP1;ratioP1;P1;durP2;ratioP2;P2;SDS_P1;SDS_P2;PMS_P1;PMS_P2;Temp;Humidity;BMP_temperature;BMP_pressure;BME280_temperature;BME280_humidity;BME280_pressure;Samples;Min_cycle;Max_cycle;Signal;HPM_P1;HPM_P2
2022/09/24 00:00:57;;;;;;;3.73;3.37;;;14.20;99.90;;;;;;5036520;28;20970;-68
2022/09/24 00:03:24;;;;;;;4.50;3.63;;;14.20;99.90;;;;;;5052721;28;20501;-69
2022/09/24 00:05:51;;;;;;;3.37;3.13;;;14.10;99.90;;;;;;5039190;28;20216;-68
2022/09/24 00:08:19;;;;;;;4.13;3.47;;;14.10;99.90;;;;;;5039296;28;20470;-68
2022/09/24 00:10:47;;;;;;;3.23;2.93;;;14.10;99.90;;;;;;5044327;28;20485;-69
2022/09/24 00:13:16;;;;;;;2.87;2.63;;;14.10;99.90;;;;;;5045306;28;20446;-68
2022/09/24 00:15:45;;;;;;;3.40;3.10;;;14.00;99.90;;;;;;5049109;28;20891;-70
2022/09/24 00:18:13;;;;;;;4.67;4.00;;;14.00;99.90;;;;;;5024324;28;20451;-69
2022/09/24 00:20:39;;;;;;;3.87;3.07;;;14.00;99.90;;;;;;5048291;28;20466;-68
2022/09/24 00:23:07;;;;;;;3.67;3.37;;;14.00;99.90;;;;;;5028930;28;20485;-69
2022/09/24 00:28:22;;;;;;;7.27;3.47;;;13.90;99.90;;;;;;5048528;28;21016;-69
2022/09/24 00:30:48;;;;;;;3.70;3.23;;;13.90;99.90;;;;;;5047316;28;20490;-68
2022/09/24 00:33:13;;;;;;;3.30;3.00;;;13.90;99.90;;;;;;5044684;28;20303;-69
2022/09/24 00:35:40;;;;;;;3.47;3.17;;;13.90;99.90;;;;;;5047515;28;20311;-68
2022/09/24 00:38:06;;;;;;;6.27;3.50;;;13.80;99.90;;;;;;5040773;28;20219;-69
2022/09/24 00:40:34;;;;;;;3.07;2.87;;;13.70;99.90;;;;;;5038203;28;20888;-68
2022/09/24 00:43:00;;;;;;;4.00;3.70;;;13.60;99.90;;;;;;5040077;28;20454;-68
2022/09/24 00:45:29;;;;;;;3.57;3.20;;;13.60;99.90;;;;;;5047403;28;20458;-68
2022/09/24 00:47:57;;;;;;;6.33;3.53;;;13.70;99.90;;;;;;5041900;28;20474;-68
2022/09/24 00:50:33;;;;;;;3.80;3.50;;;13.70;99.90;;;;;;5045508;28;20541;-68
2022/09/24 00:53:12;;;;;;;4.47;4.07;;;13.70;99.90;;;;;;5044671;28;20466;-68
2022/09/24 00:55:41;;;;;;;4.13;3.70;;;13.70;99.90;;;;;;5046209;28;20470;-68
2022/09/24 00:58:08;;;;;;;3.40;3.10;;;13.70;99.90;;;;;;5045133;28;20458;-69
2022/09/24 01:00:36;;;;;;;5.50;4.00;;;13.70;99.90;;;;;;5048084;28;20516;-68
2022/09/24 01:03:08;;;;;;;7.53;4.20;;;13.70;99.90;;;;;;5024635;28;20550;-70
2022/09/24 01:05:37;;;;;;;5.17;4.20;;;13.70;99.90;;;;;;5060595;28;20464;-68
2022/09/24 01:08:05;;;;;;;5.23;4.33;;;13.70;99.90;;;;;;5046300;28;20474;-67
2022/09/24 01:10:49;;;;;;;5.03;4.53;;;13.70;99.90;;;;;;5029350;28;20474;-70
2022/09/24 01:13:40;;;;;;;4.90;4.40;;;13.60;99.90;;;;;;5029474;28;20508;-68
2022/09/24 01:16:25;;;;;;;5.90;4.03;;;13.60;99.90;;;;;;5028341;28;20995;-69
2022/09/24 01:19:19;;;;;;;4.50;4.10;;;13.60;99.90;;;;;;5042106;28;20537;-68
2022/09/24 01:22:02;;;;;;;5.60;4.20;;;13.60;99.90;;;;;;5041297;28;20447;-69
2022/09/24 01:24:49;;;;;;;4.17;3.77;;;13.60;99.90;;;;;;5026820;28;20451;-70
2022/09/24 01:27:32;;;;;;;5.90;3.57;;;13.50;99.90;;;;;;5044393;28;20476;-70
2022/09/24 01:30:10;;;;;;;5.10;4.37;;;13.50;99.90;;;;;;5025107;28;20467;-69
2022/09/24 01:32:42;;;;;;;4.17;3.83;;;13.50;99.90;;;;;;5044516;28;21065;-68
2022/09/24 01:35:20;;;;;;;3.63;3.33;;;13.50;99.90;;;;;;5043238;28;20458;-68
2022/09/24 01:38:00;;;;;;;4.13;3.70;;;13.50;99.90;;;;;;5039865;28;20808;-68
2022/09/24 01:40:27;;;;;;;3.43;3.23;;;13.40;99.90;;;;;;5039095;28;20459;-68
2022/09/24 01:42:56;;;;;;;4.03;3.53;;;13.40;99.90;;;;;;5043303;28;20462;-68
2022/09/24 01:45:24;;;;;;;4.00;3.60;;;13.40;99.90;;;;;;5029895;28;20467;-68
2022/09/24 01:47:50;;;;;;;3.70;3.10;;;13.40;99.90;;;;;;5043382;28;20528;-68
2022/09/24 01:50:18;;;;;;;3.50;3.20;;;13.30;99.90;;;;;;5063225;28;20462;-68
2022/09/24 01:53:05;;;;;;;3.80;3.50;;;13.30;99.90;;;;;;5047122;28;20310;-70
2022/09/24 01:55:37;;;;;;;4.03;3.60;;;13.30;99.90;;;;;;5016390;28;20454;-68
2022/09/24 01:58:17;;;;;;;5.43;3.40;;;13.30;99.90;;;;;;5039468;28;20466;-68
2022/09/24 02:00:46;;;;;;;4.10;3.80;;;13.20;99.90;;;;;;5046200;28;20469;-68
2022/09/24 02:03:15;;;;;;;3.60;3.00;;;13.20;99.90;;;;;;5043079;28;20533;-68
2022/09/24 02:05:52;;;;;;;5.50;3.63;;;13.20;99.90;;;;;;5033665;28;20936;-68
2022/09/24 02:08:28;;;;;;;3.10;2.90;;;13.20;99.90;;;;;;5031647;28;20503;-68
2022/09/24 02:11:13;;;;;;;3.53;3.00;;;13.10;99.90;;;;;;5044104;28;20557;-69
2022/09/24 02:14:03;;;;;;;3.47;3.17;;;13.10;99.90;;;;;;5041348;28;20546;-69
2022/09/24 02:16:33;;;;;;;6.70;3.47;;;13.10;99.90;;;;;;5039355;28;20984;-69
2022/09/24 02:19:04;;;;;;;3.80;3.37;;;13.00;99.90;;;;;;5054022;28;20456;-69
2022/09/24 02:21:33;;;;;;;3.33;2.83;;;12.90;99.90;;;;;;5060920;28;20480;-70
2022/09/24 02:24:06;;;;;;;3.50;3.20;;;12.90;99.90;;;;;;5041650;28;20454;-69
2022/09/24 02:26:32;;;;;;;3.20;3.00;;;12.90;99.90;;;;;;5044584;28;21064;-69
2022/09/24 02:28:58;;;;;;;4.97;3.30;;;12.90;99.90;;;;;;5042475;28;20451;-70
2022/09/24 02:31:33;;;;;;;3.47;2.93;;;12.90;99.90;;;;;;5040245;28;20545;-68
2022/09/24 02:34:22;;;;;;;4.77;3.60;;;12.80;99.90;;;;;;5043239;28;20450;-70
2022/09/24 02:36:54;;;;;;;3.93;3.30;;;12.80;99.90;;;;;;5028492;28;20489;-69
2022/09/24 02:39:20;;;;;;;3.67;3.37;;;12.80;99.90;;;;;;5044638;28;20933;-69
2022/09/24 02:41:48;;;;;;;4.37;3.70;;;12.70;99.90;;;;;;5037717;28;20458;-68
2022/09/24 02:44:18;;;;;;;2.90;2.70;;;12.70;99.90;;;;;;5043641;28;20259;-70
2022/09/24 02:46:49;;;;;;;3.70;3.40;;;12.70;99.90;;;;;;5035002;28;20471;-69
2022/09/24 02:49:15;;;;;;;3.50;3.20;;;12.60;99.90;;;;;;5043637;28;20958;-69
2022/09/24 02:51:42;;;;;;;3.90;3.00;;;12.70;99.90;;;;;;5027312;28;20473;-69
2022/09/24 02:54:08;;;;;;;3.87;3.57;;;12.60;99.90;;;;;;5058694;28;20475;-68
2022/09/24 02:56:34;;;;;;;3.30;2.90;;;12.60;99.90;;;;;;5039661;28;20449;-68
2022/09/24 02:59:03;;;;;;;3.33;3.03;;;12.60;99.90;;;;;;5043124;28;21004;-69
2022/09/24 03:01:30;;;;;;;3.60;3.30;;;12.60;99.90;;;;;;5044832;28;20483;-68
2022/09/24 03:03:56;;;;;;;3.67;3.37;;;12.60;99.90;;;;;;5041442;28;20453;-68
2022/09/24 03:06:23;;;;;;;3.10;2.90;;;12.50;99.90;;;;;;5045156;28;20557;-69
2022/09/24 03:08:50;;;;;;;4.30;3.43;;;12.50;99.90;;;;;;5042977;28;20486;-69
2022/09/24 03:11:16;;;;;;;3.80;3.50;;;12.50;99.90;;;;;;5042367;28;20529;-69
2022/09/24 03:13:42;;;;;;;3.80;3.50;;;12.50;99.90;;;;;;5039765;28;20534;-69
2022/09/24 03:16:07;;;;;;;3.10;2.90;;;12.50;99.90;;;;;;5042738;28;20216;-68
2022/09/24 03:18:34;;;;;;;6.33;3.47;;;12.40;99.90;;;;;;5037477;28;20592;-68
2022/09/24 03:21:05;;;;;;;7.37;3.50;;;12.40;99.90;;;;;;5023000;28;20217;-68
2022/09/24 03:23:31;;;;;;;4.17;2.90;;;12.40;99.90;;;;;;5024964;28;20466;-70
2022/09/24 03:25:56;;;;;;;3.13;2.77;;;12.40;99.90;;;;;;5040450;28;20450;-68
2022/09/24 03:28:22;;;;;;;4.50;3.40;;;12.40;99.90;;;;;;5046086;28;20639;-69
2022/09/24 03:31:00;;;;;;;2.90;2.67;;;12.30;99.90;;;;;;5044086;28;20208;-69
2022/09/24 03:33:34;;;;;;;3.50;3.20;;;12.30;99.90;;;;;;5043992;28;20224;-68
2022/09/24 03:36:01;;;;;;;3.10;2.83;;;12.30;99.90;;;;;;5044281;28;20891;-69
2022/09/24 03:38:28;;;;;;;5.17;3.97;;;12.30;99.90;;;;;;5048600;28;20462;-68
2022/09/24 03:40:58;;;;;;;4.20;3.13;;;12.30;99.90;;;;;;5045557;28;20454;-69
2022/09/24 03:43:24;;;;;;;4.33;3.57;;;12.20;99.90;;;;;;5028680;28;20466;-70
2022/09/24 03:45:50;;;;;;;3.10;2.87;;;12.20;99.90;;;;;;5046180;28;20473;-69
2022/09/24 03:48:17;;;;;;;3.67;2.93;;;12.20;99.90;;;;;;5028456;28;20463;-67
2022/09/24 03:50:44;;;;;;;3.37;3.00;;;12.20;99.90;;;;;;5052036;28;21041;-67
2022/09/24 03:53:11;;;;;;;3.80;3.00;;;12.10;99.90;;;;;;5047061;28;20532;-68
2022/09/24 03:55:53;;;;;;;3.70;3.40;;;12.10;99.90;;;;;;5045098;28;20958;-69
2022/09/24 03:58:19;;;;;;;3.40;3.10;;;12.10;99.90;;;;;;5048098;28;20461;-68
2022/09/24 04:00:44;;;;;;;3.20;2.90;;;12.10;99.90;;;;;;5031591;28;20458;-68
2022/09/24 04:03:10;;;;;;;4.63;3.50;;;12.00;99.90;;;;;;5045820;28;20208;-69
2022/09/24 04:05:36;;;;;;;9.00;3.50;;;12.00;99.90;;;;;;5037047;28;20231;-69
2022/09/24 04:08:03;;;;;;;5.93;3.93;;;11.90;99.90;;;;;;5046050;28;20238;-69
2022/09/24 04:10:30;;;;;;;5.13;3.80;;;12.00;99.90;;;;;;5048108;28;20454;-70
2022/09/24 04:12:56;;;;;;;6.97;3.50;;;11.90;99.90;;;;;;5041077;28;20537;-68
2022/09/24 04:15:22;;;;;;;10.30;3.57;;;11.90;99.90;;;;;;5047962;28;20466;-68
2022/09/24 04:17:51;;;;;;;4.40;3.10;;;11.90;99.90;;;;;;5027247;28;20448;-69
2022/09/24 04:20:21;;;;;;;2.70;2.50;;;11.90;99.90;;;;;;5052165;28;20231;-68
2022/09/24 04:22:52;;;;;;;3.93;3.50;;;11.90;99.90;;;;;;5046800;28;20461;-69
2022/09/24 04:25:19;;;;;;;4.37;3.33;;;11.90;99.90;;;;;;5043929;28;20541;-69
2022/09/24 04:27:46;;;;;;;3.57;3.27;;;11.90;99.90;;;;;;5054714;28;20624;-69
2022/09/24 04:30:13;;;;;;;4.00;3.23;;;11.90;99.90;;;;;;5030907;28;20455;-68
2022/09/24 04:32:42;;;;;;;3.77;3.47;;;11.90;99.90;;;;;;5044066;28;20459;-68
2022/09/24 04:35:08;;;;;;;2.87;2.60;;;11.90;99.90;;;;;;5041880;28;20458;-69
2022/09/24 04:37:36;;;;;;;3.70;2.87;;;11.80;99.90;;;;;;5047486;28;20985;-68
2022/09/24 04:40:04;;;;;;;3.20;2.90;;;11.80;99.90;;;;;;5045243;28;20458;-69
2022/09/24 04:42:30;;;;;;;3.67;3.33;;;11.80;99.90;;;;;;5046569;28;20549;-69
2022/09/24 04:44:56;;;;;;;4.03;3.43;;;11.80;99.90;;;;;;5028522;28;20804;-68
2022/09/24 04:47:25;;;;;;;4.33;3.77;;;11.70;99.90;;;;;;5046878;28;20486;-69
2022/09/24 04:49:51;;;;;;;3.57;3.30;;;11.70;99.90;;;;;;5029191;28;20220;-68
2022/09/24 04:52:16;;;;;;;3.90;3.60;;;11.70;99.90;;;;;;5044587;28;21012;-68
2022/09/24 04:54:46;;;;;;;5.00;3.50;;;11.70;99.90;;;;;;5039410;28;20458;-69
2022/09/24 04:57:15;;;;;;;5.00;4.23;;;11.70;99.90;;;;;;5045310;28;20264;-68
2022/09/24 04:59:42;;;;;;;3.70;3.07;;;11.70;99.90;;;;;;5048291;28;20458;-68
2022/09/24 05:02:08;;;;;;;5.37;4.13;;;11.70;99.90;;;;;;5043498;28;20489;-69
2022/09/24 05:04:36;;;;;;;4.80;3.60;;;11.70;99.90;;;;;;5048131;28;20458;-69
2022/09/24 05:07:03;;;;;;;7.03;3.93;;;11.70;99.90;;;;;;5029297;28;20481;-69
2022/09/24 05:09:32;;;;;;;5.93;4.37;;;11.70;99.90;;;;;;5046107;28;20451;-69
2022/09/24 05:11:58;;;;;;;3.47;3.07;;;11.60;99.90;;;;;;5044534;28;21133;-70
2022/09/24 05:14:24;;;;;;;3.60;2.90;;;11.60;99.90;;;;;;5045845;28;20537;-68
2022/09/24 05:16:50;;;;;;;3.93;3.10;;;11.60;99.90;;;;;;5044938;28;20462;-68
2022/09/24 05:19:15;;;;;;;5.50;3.00;;;11.50;99.90;;;;;;5059534;28;20450;-68
2022/09/24 05:21:41;;;;;;;3.77;3.37;;;11.50;99.90;;;;;;5026597;28;20231;-70
2022/09/24 05:24:07;;;;;;;4.77;3.17;;;11.60;99.90;;;;;;5043718;28;20216;-70
2022/09/24 05:29:17;;;;;;;4.50;3.87;;;11.50;99.90;;;;;;5063739;28;20262;-68
2022/09/24 05:31:43;;;;;;;3.37;3.00;;;11.40;99.90;;;;;;5045397;28;20541;-69
2022/09/24 05:34:09;;;;;;;3.93;3.40;;;11.40;99.90;;;;;;5045209;28;20276;-69
2022/09/24 05:36:35;;;;;;;16.23;4.20;;;11.50;99.90;;;;;;5046671;28;20211;-68
2022/09/24 05:39:01;;;;;;;3.63;3.30;;;11.50;99.90;;;;;;5046103;28;20219;-68
2022/09/24 05:41:26;;;;;;;3.83;3.13;;;11.50;99.90;;;;;;5045597;28;20466;-69
2022/09/24 05:43:52;;;;;;;4.03;3.70;;;11.50;99.90;;;;;;5043727;28;20307;-68
2022/09/24 05:46:18;;;;;;;6.77;3.77;;;11.50;99.90;;;;;;5046616;28;20240;-72
2022/09/24 05:48:43;;;;;;;5.00;3.40;;;11.50;99.90;;;;;;5046053;28;20223;-72
2022/09/24 05:51:09;;;;;;;3.60;3.30;;;11.50;99.90;;;;;;5043467;28;20292;-72
2022/09/24 05:53:35;;;;;;;5.93;4.03;;;11.50;99.90;;;;;;5046549;28;20231;-72
2022/09/24 05:56:00;;;;;;;8.00;4.10;;;11.50;99.90;;;;;;5045845;28;20229;-72
2022/09/24 05:58:26;;;;;;;5.27;4.30;;;11.50;99.90;;;;;;5028520;28;20224;-71
2022/09/24 06:00:52;;;;;;;6.17;4.33;;;11.50;99.90;;;;;;5040733;28;20702;-72
2022/09/24 06:03:19;;;;;;;7.90;5.00;;;11.50;99.90;;;;;;5031695;28;20678;-72
2022/09/24 06:05:49;;;;;;;7.80;4.87;;;11.50;99.90;;;;;;5027658;28;20231;-70
2022/09/24 06:08:16;;;;;;;8.03;5.60;;;11.50;99.90;;;;;;5034698;28;20532;-72
2022/09/24 06:10:44;;;;;;;15.63;6.20;;;11.50;99.90;;;;;;5030764;28;20461;-71
2022/09/24 06:13:10;;;;;;;8.50;5.73;;;11.50;99.90;;;;;;5042118;28;20996;-72
2022/09/24 06:15:37;;;;;;;6.43;5.47;;;11.50;99.90;;;;;;5039127;28;20462;-72
2022/09/24 06:18:04;;;;;;;6.67;4.90;;;11.50;99.90;;;;;;5027396;28;20836;-70
2022/09/24 06:20:31;;;;;;;5.30;4.80;;;11.50;99.90;;;;;;5057990;28;20459;-70
2022/09/24 06:22:56;;;;;;;8.10;4.10;;;11.40;99.90;;;;;;5042714;28;20457;-68
2022/09/24 06:25:26;;;;;;;6.70;4.33;;;11.50;99.90;;;;;;5045230;28;20818;-68
2022/09/24 06:28:05;;;;;;;3.87;3.57;;;11.50;99.90;;;;;;5050838;28;20301;-69
2022/09/24 06:30:40;;;;;;;4.27;3.87;;;11.50;99.90;;;;;;5049163;28;20458;-69
2022/09/24 06:33:08;;;;;;;4.27;3.87;;;11.40;99.90;;;;;;5041454;28;20472;-68
2022/09/24 06:35:39;;;;;;;4.60;4.20;;;11.40;99.90;;;;;;5044902;28;20450;-68
2022/09/24 06:38:06;;;;;;;4.30;3.50;;;11.50;99.90;;;;;;5044128;28;20481;-70
2022/09/24 06:40:32;;;;;;;4.00;3.70;;;11.50;99.90;;;;;;5046683;28;20985;-68
2022/09/24 06:42:58;;;;;;;6.77;4.23;;;11.50;99.90;;;;;;5041713;28;20454;-71
2022/09/24 06:45:25;;;;;;;4.17;3.77;;;11.50;99.90;;;;;;5032587;28;20482;-71
2022/09/24 06:47:56;;;;;;;4.40;3.40;;;11.50;99.90;;;;;;5042447;28;20524;-70
2022/09/24 06:50:23;;;;;;;5.20;4.17;;;11.50;99.90;;;;;;5039916;28;20537;-68
2022/09/24 06:52:49;;;;;;;5.50;4.47;;;11.50;99.90;;;;;;5035880;28;20464;-69
2022/09/24 06:55:16;;;;;;;8.97;4.60;;;11.50;99.90;;;;;;5043009;28;20846;-69
2022/09/24 06:57:42;;;;;;;5.27;4.77;;;11.50;99.90;;;;;;5042922;28;20310;-69
2022/09/24 07:00:09;;;;;;;7.17;5.47;;;11.50;99.90;;;;;;5024359;28;20545;-68
2022/09/24 07:02:34;;;;;;;5.20;4.53;;;11.60;99.90;;;;;;5043640;28;20230;-69
2022/09/24 07:05:00;;;;;;;6.53;5.13;;;11.50;99.90;;;;;;5042028;28;20841;-68
2022/09/24 07:07:28;;;;;;;4.63;4.13;;;11.50;99.90;;;;;;5027001;28;20336;-69
2022/09/24 07:09:55;;;;;;;6.47;5.20;;;11.60;99.90;;;;;;5038558;28;20283;-69
2022/09/24 07:12:21;;;;;;;7.13;5.80;;;11.60;99.90;;;;;;5041101;28;20511;-69
2022/09/24 07:14:47;;;;;;;7.37;6.30;;;11.60;99.90;;;;;;5043467;28;20524;-69
2022/09/24 07:17:13;;;;;;;8.53;6.27;;;11.60;99.90;;;;;;5037647;28;20804;-70
2022/09/24 07:19:38;;;;;;;10.20;6.80;;;11.60;99.90;;;;;;5040669;28;20215;-71
2022/09/24 07:22:04;;;;;;;10.03;7.23;;;11.70;99.90;;;;;;5032824;28;20224;-70
2022/09/24 07:24:30;;;;;;;9.27;6.30;;;11.60;99.90;;;;;;5031520;28;20896;-70
2022/09/24 07:26:56;;;;;;;9.53;6.20;;;11.70;99.90;;;;;;5044950;28;20470;-70
2022/09/24 07:29:22;;;;;;;9.30;5.83;;;11.70;99.90;;;;;;5034086;28;20239;-72
2022/09/24 07:31:51;;;;;;;8.60;6.00;;;11.70;99.90;;;;;;5030487;28;20459;-73
2022/09/24 07:34:16;;;;;;;9.30;6.20;;;11.70;99.90;;;;;;5027961;28;20462;-68
2022/09/24 07:36:42;;;;;;;6.83;5.03;;;11.70;99.90;;;;;;5052099;28;20465;-68
2022/09/24 07:39:09;;;;;;;6.63;5.70;;;11.70;99.90;;;;;;5027796;28;20291;-70
2022/09/24 07:41:34;;;;;;;7.90;5.13;;;11.80;99.90;;;;;;5049276;28;20223;-70
2022/09/24 07:44:00;;;;;;;12.30;6.07;;;11.80;99.90;;;;;;5045752;28;20455;-71
2022/09/24 07:46:26;;;;;;;8.60;5.10;;;11.80;99.90;;;;;;5034108;28;20224;-69
2022/09/24 07:48:55;;;;;;;8.20;5.60;;;11.80;99.90;;;;;;5048517;28;20220;-69
2022/09/24 07:51:27;;;;;;;6.17;5.57;;;11.90;99.90;;;;;;5036897;28;20209;-69
2022/09/24 07:53:54;;;;;;;5.53;4.83;;;11.90;99.90;;;;;;5031814;28;20533;-71
2022/09/24 07:56:21;;;;;;;7.07;4.90;;;12.00;99.90;;;;;;5034356;28;20477;-71
2022/09/24 07:58:48;;;;;;;5.87;4.20;;;12.00;99.90;;;;;;5033682;28;20450;-70
2022/09/24 08:01:16;;;;;;;4.30;3.80;;;12.00;99.90;;;;;;5032872;28;20522;-69
2022/09/24 08:03:43;;;;;;;4.40;4.00;;;12.10;99.90;;;;;;5051775;28;20446;-69
2022/09/24 08:06:08;;;;;;;5.73;4.20;;;12.10;99.90;;;;;;5033799;28;20461;-71
2022/09/24 08:08:34;;;;;;;5.70;5.00;;;12.20;99.90;;;;;;5033656;28;20482;-70
2022/09/24 08:11:07;;;;;;;5.30;4.80;;;12.20;99.90;;;;;;5041255;28;20223;-70
2022/09/24 08:13:33;;;;;;;4.17;3.77;;;12.30;99.90;;;;;;5038242;28;20330;-70
2022/09/24 08:16:00;;;;;;;4.77;4.37;;;12.30;99.90;;;;;;5050809;28;20455;-71
2022/09/24 08:18:27;;;;;;;8.20;4.80;;;12.40;99.90;;;;;;5037517;28;20506;-69
2022/09/24 08:20:53;;;;;;;11.33;4.73;;;12.40;99.90;;;;;;5041375;28;20518;-70
2022/09/24 08:23:19;;;;;;;11.53;5.87;;;12.40;99.90;;;;;;5040046;28;20473;-69
2022/09/24 08:25:46;;;;;;;6.07;5.00;;;12.40;99.90;;;;;;5043933;28;20471;-70
2022/09/24 08:28:15;;;;;;;5.13;4.63;;;12.40;99.90;;;;;;5046125;28;20224;-70
2022/09/24 08:30:41;;;;;;;5.77;4.53;;;12.50;99.90;;;;;;5040068;28;20450;-70
2022/09/24 08:33:08;;;;;;;6.40;4.50;;;12.50;99.90;;;;;;5049172;28;20454;-69
2022/09/24 08:35:34;;;;;;;5.13;4.63;;;12.60;99.90;;;;;;5047849;28;20446;-70
2022/09/24 08:38:02;;;;;;;9.57;6.73;;;12.80;99.90;;;;;;5036537;28;20505;-70
2022/09/24 08:40:32;;;;;;;9.33;6.60;;;12.80;99.90;;;;;;5037411;28;20458;-71
2022/09/24 08:43:24;;;;;;;7.90;6.67;;;12.90;99.90;;;;;;5039435;28;21025;-69
2022/09/24 08:48:45;;;;;;;6.70;6.00;;;12.90;99.90;;;;;;5040777;28;20501;-71
2022/09/24 08:51:16;;;;;;;7.23;4.80;;;13.00;99.90;;;;;;5042214;28;20454;-71
2022/09/24 08:53:59;;;;;;;6.07;5.10;;;13.10;99.90;;;;;;5023841;28;21219;-69
2022/09/24 08:56:28;;;;;;;5.90;4.90;;;13.20;99.90;;;;;;5043012;28;20474;-70
2022/09/24 08:59:10;;;;;;;7.47;5.40;;;13.30;99.90;;;;;;5045662;28;20543;-71
2022/09/24 09:02:09;;;;;;;6.17;5.50;;;13.40;99.90;;;;;;5042098;28;20462;-71
2022/09/24 09:04:56;;;;;;;6.93;5.10;;;13.40;99.90;;;;;;5060038;28;20548;-71
2022/09/24 09:07:33;;;;;;;5.73;4.97;;;13.40;99.90;;;;;;5050872;28;20489;-71
2022/09/24 09:10:31;;;;;;;7.63;5.70;;;13.50;99.90;;;;;;5051582;28;20944;-72
2022/09/24 09:13:35;;;;;;;6.77;6.00;;;13.50;99.90;;;;;;5035281;28;20454;-72
2022/09/24 09:16:06;;;;;;;10.63;5.90;;;13.50;99.90;;;;;;5048956;28;20519;-71
2022/09/24 09:18:36;;;;;;;5.73;5.13;;;13.60;99.90;;;;;;5046594;28;20516;-72
2022/09/24 09:21:16;;;;;;;5.40;4.90;;;13.60;99.90;;;;;;5028520;28;20581;-71
2022/09/24 09:23:50;;;;;;;5.13;4.63;;;13.70;99.90;;;;;;5048023;28;20481;-72
2022/09/24 09:26:18;;;;;;;7.73;4.97;;;13.70;99.90;;;;;;5033043;28;20851;-71
2022/09/24 09:28:45;;;;;;;5.67;5.07;;;13.70;99.90;;;;;;5050779;28;20462;-72
2022/09/24 09:31:17;;;;;;;7.83;5.60;;;13.80;99.90;;;;;;5059917;28;20474;-72
2022/09/24 09:34:01;;;;;;;6.23;4.93;;;13.80;99.90;;;;;;5046731;28;21039;-71
2022/09/24 09:36:50;;;;;;;20.73;9.60;;;13.90;99.90;;;;;;5036301;28;20984;-72
2022/09/24 09:39:37;;;;;;;37.47;19.30;;;13.90;99.90;;;;;;5048731;28;20453;-72
2022/09/24 09:42:30;;;;;;;32.47;18.93;;;14.00;99.90;;;;;;5031830;28;21025;-72
2022/09/24 09:45:13;;;;;;;36.07;18.67;;;14.10;99.90;;;;;;5042555;28;20478;-70
2022/09/24 09:47:44;;;;;;;24.60;15.80;;;14.10;99.90;;;;;;5041847;28;20470;-71
2022/09/24 09:50:34;;;;;;;21.70;14.23;;;14.20;99.90;;;;;;5046256;28;20469;-71
2022/09/24 09:53:01;;;;;;;13.23;9.83;;;14.30;99.90;;;;;;5042849;28;20511;-71
2022/09/24 09:55:34;;;;;;;12.27;8.03;;;14.40;99.90;;;;;;5043243;28;20530;-71
2022/09/24 09:58:13;;;;;;;10.00;7.23;;;14.40;99.90;;;;;;5047747;28;20485;-71
2022/09/24 10:00:39;;;;;;;8.73;7.30;;;14.50;99.90;;;;;;5049045;28;20474;-71
2022/09/24 10:03:05;;;;;;;8.03;6.83;;;14.50;99.90;;;;;;5048781;28;20925;-71
2022/09/24 10:05:31;;;;;;;9.10;5.90;;;14.50;99.90;;;;;;5031590;28;20219;-71
2022/09/24 10:07:57;;;;;;;6.13;5.53;;;14.50;99.90;;;;;;5048732;28;20267;-71
2022/09/24 10:10:27;;;;;;;6.13;5.33;;;14.60;99.90;;;;;;5042826;28;20231;-70
2022/09/24 10:13:13;;;;;;;5.53;5.00;;;14.70;99.90;;;;;;5045381;28;20952;-70
2022/09/24 10:15:52;;;;;;;6.77;6.10;;;14.70;99.90;;;;;;5037643;28;20521;-71
2022/09/24 10:18:31;;;;;;;5.70;4.70;;;14.70;99.90;;;;;;5046064;28;20464;-71
2022/09/24 10:21:01;;;;;;;4.93;4.40;;;14.80;99.90;;;;;;5044667;28;20465;-70
2022/09/24 10:23:46;;;;;;;6.03;5.43;;;14.80;99.90;;;;;;5039304;28;20467;-71
2022/09/24 10:26:12;;;;;;;5.33;4.83;;;14.80;99.90;;;;;;5049667;28;20997;-70
2022/09/24 10:31:37;;;;;;;5.90;4.93;;;14.90;99.90;;;;;;5049582;28;20460;-71
2022/09/24 10:34:16;;;;;;;5.97;5.10;;;15.00;99.90;;;;;;5042332;28;20466;-71
2022/09/24 10:36:50;;;;;;;7.27;5.77;;;15.10;99.90;;;;;;5043437;28;20473;-71
2022/09/24 10:39:16;;;;;;;10.00;7.60;;;15.20;99.90;;;;;;5044917;28;20461;-71
2022/09/24 10:41:51;;;;;;;9.27;7.90;;;15.30;99.90;;;;;;5041632;28;20466;-70
2022/09/24 10:44:17;;;;;;;7.57;6.80;;;15.30;99.90;;;;;;5044428;28;20462;-70
2022/09/24 10:47:21;;;;;;;7.27;5.63;;;15.40;99.90;;;;;;5039685;28;20541;-69
2022/09/24 10:50:11;;;;;;;9.33;6.97;;;15.50;99.90;;;;;;5047915;28;20446;-70
2022/09/24 10:52:51;;;;;;;7.43;6.40;;;15.60;99.90;;;;;;5036413;28;20463;-72
2022/09/24 10:55:20;;;;;;;11.43;6.70;;;15.80;99.90;;;;;;5035102;28;20446;-71
2022/09/24 10:58:21;;;;;;;8.73;6.87;;;15.90;99.90;;;;;;5048025;28;20563;-70
2022/09/24 11:00:51;;;;;;;6.70;6.00;;;16.00;99.90;;;;;;5038837;28;20533;-70
2022/09/24 11:03:27;;;;;;;6.97;6.30;;;16.00;99.90;;;;;;5040849;28;20569;-70
2022/09/24 11:06:25;;;;;;;9.90;6.87;;;16.00;99.90;;;;;;5046549;28;20576;-71
2022/09/24 11:09:09;;;;;;;7.70;7.00;;;16.10;99.90;;;;;;5062581;28;20500;-70
2022/09/24 11:11:46;;;;;;;9.57;7.17;;;16.10;99.90;;;;;;5048548;28;20467;-70
2022/09/24 11:14:26;;;;;;;7.33;6.60;;;16.20;99.90;;;;;;5046550;28;20458;-70
2022/09/24 11:17:20;;;;;;;8.13;7.33;;;16.20;99.90;;;;;;5045138;28;20473;-70
2022/09/24 11:20:10;;;;;;;7.87;6.97;;;16.20;99.90;;;;;;5042312;28;20465;-70
2022/09/24 11:22:58;;;;;;;9.67;7.03;;;16.30;99.90;;;;;;5046358;28;20918;-69
2022/09/24 11:26:03;;;;;;;8.70;6.60;;;16.30;99.90;;;;;;5063875;28;20461;-70
2022/09/24 11:28:59;;;;;;;6.30;5.60;;;16.40;99.90;;;;;;5013432;28;20546;-71
2022/09/24 11:31:51;;;;;;;9.77;6.27;;;16.50;99.90;;;;;;5060019;28;20941;-69
2022/09/24 11:34:36;;;;;;;7.60;6.70;;;16.60;99.90;;;;;;5046964;28;20978;-70
2022/09/24 11:37:14;;;;;;;6.43;5.57;;;16.60;99.90;;;;;;5031114;28;21012;-69
2022/09/24 11:40:02;;;;;;;7.23;6.33;;;16.60;99.90;;;;;;5040263;28;20450;-71
2022/09/24 11:42:34;;;;;;;7.77;5.77;;;16.60;99.90;;;;;;5044255;28;20447;-71
2022/09/24 11:45:27;;;;;;;12.63;6.07;;;16.70;99.90;;;;;;5047444;28;20988;-69
2022/09/24 11:48:13;;;;;;;7.57;6.30;;;16.70;99.90;;;;;;5054612;28;20518;-71
2022/09/24 11:50:56;;;;;;;6.63;5.97;;;16.80;99.90;;;;;;5054977;28;20450;-70
2022/09/24 11:53:35;;;;;;;6.20;5.60;;;17.00;99.90;;;;;;5045037;28;20457;-71
2022/09/24 11:56:22;;;;;;;6.57;5.43;;;17.10;99.90;;;;;;5045433;28;20464;-71
2022/09/24 11:58:57;;;;;;;6.80;5.20;;;17.20;99.90;;;;;;5044553;28;20454;-69
2022/09/24 12:01:34;;;;;;;5.80;5.20;;;17.20;99.90;;;;;;5051739;28;20844;-69
2022/09/24 12:04:10;;;;;;;5.77;5.20;;;17.20;99.90;;;;;;5049615;28;20453;-70
2022/09/24 12:06:51;;;;;;;5.57;5.00;;;17.30;99.90;;;;;;5045597;28;20454;-70
2022/09/24 12:09:28;;;;;;;5.87;5.13;;;17.40;99.90;;;;;;5015898;28;20469;-70
2022/09/24 12:12:16;;;;;;;6.27;5.17;;;17.40;99.90;;;;;;5049721;28;20454;-71
2022/09/24 12:14:55;;;;;;;6.87;6.10;;;17.40;99.90;;;;;;5043808;28;21063;-70
2022/09/24 12:17:26;;;;;;;10.43;6.53;;;17.40;99.90;;;;;;5051497;28;20443;-69
2022/09/24 12:20:01;;;;;;;7.90;5.60;;;17.30;99.90;;;;;;5051621;28;20489;-70
2022/09/24 12:22:28;;;;;;;6.17;5.53;;;17.40;99.90;;;;;;5049253;28;20450;-70
2022/09/24 12:24:58;;;;;;;7.57;6.77;;;17.40;99.90;;;;;;5048072;28;20474;-71
2022/09/24 12:27:35;;;;;;;7.97;6.47;;;17.50;99.90;;;;;;5038741;28;20465;-69
2022/09/24 12:33:40;;;;;;;7.57;6.77;;;17.50;99.90;;;;;;5065634;28;20442;-69
2022/09/24 12:36:12;;;;;;;5.80;5.30;;;17.60;99.90;;;;;;5051237;28;20460;-70
2022/09/24 12:38:44;;;;;;;8.70;6.53;;;17.70;99.90;;;;;;5042598;28;20858;-70
2022/09/24 12:41:31;;;;;;;6.97;5.80;;;17.70;99.90;;;;;;5035644;28;20459;-70
2022/09/24 12:44:11;;;;;;;6.60;6.00;;;17.80;99.90;;;;;;5031894;28;20471;-69
2022/09/24 12:46:45;;;;;;;6.30;5.70;;;17.90;99.90;;;;;;5062767;28;20461;-69
2022/09/24 12:49:17;;;;;;;5.63;5.13;;;18.00;99.90;;;;;;5048615;28;20485;-70
2022/09/24 12:51:43;;;;;;;5.53;5.13;;;18.10;99.90;;;;;;5043887;28;20477;-70
2022/09/24 12:54:26;;;;;;;6.07;5.47;;;18.10;99.90;;;;;;5032074;28;20446;-70
2022/09/24 12:57:02;;;;;;;6.57;5.90;;;18.10;99.90;;;;;;5060694;28;20263;-71
2022/09/24 12:59:28;;;;;;;6.67;6.10;;;18.20;99.90;;;;;;5051058;28;20500;-69
2022/09/24 13:02:05;;;;;;;5.67;5.17;;;18.30;99.90;;;;;;5040686;28;20447;-69
2022/09/24 13:04:31;;;;;;;5.67;4.53;;;18.50;99.90;;;;;;5049843;28;20582;-71
2022/09/24 13:06:56;;;;;;;5.93;4.90;;;18.60;99.90;;;;;;5032713;28;20455;-71
2022/09/24 13:09:33;;;;;;;6.57;5.30;;;18.60;99.90;;;;;;5050896;28;20224;-70
2022/09/24 13:12:16;;;;;;;5.97;5.37;;;18.60;99.90;;;;;;5047939;28;20220;-70
2022/09/24 13:15:03;;;;;;;5.80;4.90;;;18.60;99.90;;;;;;5047066;28;20808;-69
2022/09/24 13:17:32;;;;;;;5.90;5.40;;;18.60;99.90;;;;;;5043908;28;20861;-70
2022/09/24 13:20:15;;;;;;;8.47;5.40;;;18.70;99.90;;;;;;5038141;28;20450;-70
2022/09/24 13:22:58;;;;;;;8.10;5.90;;;18.70;99.90;;;;;;5046183;28;20448;-71
2022/09/24 13:25:25;;;;;;;5.87;5.37;;;18.70;99.90;;;;;;5048547;28;20447;-69